createdAt,value
2022-08-26T00:01:29.906Z,5.35
2022-08-26T00:04:34.985Z,4.60
2022-08-26T00:07:38.340Z,4.80
2022-08-26T00:10:42.397Z,4.53
2022-08-26T00:13:47.884Z,4.55
2022-08-26T00:16:53.379Z,4.40
2022-08-26T00:19:59.980Z,4.20
2022-08-26T00:23:04.070Z,5.18
2022-08-26T00:26:08.335Z,4.53
2022-08-26T00:29:14.844Z,4.75
2022-08-26T00:32:18.295Z,4.82
2022-08-26T00:35:23.748Z,4.55
2022-08-26T00:38:27.132Z,4.80
2022-08-26T00:41:30.586Z,4.00
2022-08-26T00:44:33.868Z,4.10
2022-08-26T00:47:41.679Z,5.25
2022-08-26T00:50:52.264Z,3.80
2022-08-26T00:53:59.091Z,4.03
2022-08-26T00:57:08.741Z,4.40
2022-08-26T01:00:23.821Z,4.68
2022-08-26T01:03:29.172Z,4.38
2022-08-26T01:06:34.658Z,4.68
2022-08-26T01:09:38.399Z,4.68
2022-08-26T01:12:46.652Z,4.30
2022-08-26T01:15:54.769Z,4.38
2022-08-26T01:19:03.131Z,5.18
2022-08-26T01:22:13.532Z,4.32
2022-08-26T01:25:20.593Z,4.70
2022-08-26T01:28:28.177Z,4.00
2022-08-26T01:31:37.756Z,4.97
2022-08-26T01:34:42.876Z,4.30
2022-08-26T01:37:46.802Z,4.78
2022-08-26T01:40:52.065Z,4.57
2022-08-26T01:43:58.742Z,5.05
2022-08-26T01:47:03.311Z,4.95
2022-08-26T01:50:15.710Z,4.70
2022-08-26T01:53:32.329Z,4.55
2022-08-26T01:56:37.877Z,4.43
2022-08-26T01:59:41.260Z,4.40
2022-08-26T02:02:47.665Z,4.75
2022-08-26T02:05:55.505Z,5.00
2022-08-26T02:09:03.954Z,4.38
2022-08-26T02:12:10.356Z,4.20
2022-08-26T02:15:14.142Z,5.28
2022-08-26T02:18:17.588Z,4.97
2022-08-26T02:21:21.006Z,4.53
2022-08-26T02:24:27.814Z,4.93
2022-08-26T02:27:36.923Z,4.53
2022-08-26T02:30:42.002Z,4.75
2022-08-26T02:33:45.372Z,4.40
2022-08-26T02:36:49.464Z,4.25
2022-08-26T02:39:54.330Z,5.13
2022-08-26T02:42:59.135Z,4.72
2022-08-26T02:46:03.382Z,5.18
2022-08-26T02:49:06.768Z,5.95
2022-08-26T02:52:10.155Z,4.78
2022-08-26T02:55:13.588Z,5.13
2022-08-26T02:58:18.494Z,5.32
2022-08-26T03:01:25.890Z,3.97
2022-08-26T03:04:33.489Z,5.15
2022-08-26T03:07:36.980Z,4.80
2022-08-26T03:10:40.854Z,4.72
2022-08-26T03:13:46.587Z,4.85
2022-08-26T03:16:51.944Z,4.38
2022-08-26T03:19:57.207Z,4.68
2022-08-26T03:23:01.315Z,4.70
2022-08-26T03:26:06.161Z,4.72
2022-08-26T03:29:28.711Z,4.30
2022-08-26T03:32:36.344Z,4.90
2022-08-26T03:35:43.592Z,5.45
2022-08-26T03:38:47.228Z,4.40
2022-08-26T03:41:51.843Z,4.60
2022-08-26T03:44:57.234Z,4.97
2022-08-26T03:48:01.060Z,3.85
2022-08-26T03:51:12.244Z,5.20
2022-08-26T03:54:15.707Z,4.72
2022-08-26T03:57:19.372Z,4.55
2022-08-26T04:00:24.248Z,4.55
2022-08-26T04:03:46.021Z,5.18
2022-08-26T04:06:49.354Z,4.93
2022-08-26T04:09:56.154Z,4.38
2022-08-26T04:13:00.242Z,4.90
2022-08-26T04:16:05.452Z,4.35
2022-08-26T04:19:09.709Z,4.63
2022-08-26T04:22:14.090Z,5.43
2022-08-26T04:25:18.692Z,5.20
2022-08-26T04:28:24.872Z,4.43
2022-08-26T04:31:30.983Z,5.57
2022-08-26T04:34:35.768Z,5.38
2022-08-26T04:37:39.011Z,4.70
2022-08-26T04:40:47.498Z,4.80
2022-08-26T04:43:50.939Z,4.82
2022-08-26T04:46:56.100Z,5.75
2022-08-26T04:50:00.132Z,5.03
2022-08-26T04:53:05.625Z,4.32
2022-08-26T04:56:10.677Z,4.68
2022-08-26T04:59:18.171Z,4.70
2022-08-26T05:02:23.070Z,4.57
2022-08-26T05:05:28.625Z,5.50
2022-08-26T05:08:31.956Z,4.68
2022-08-26T05:11:35.799Z,4.50
2022-08-26T05:14:39.335Z,4.43
2022-08-26T05:17:44.073Z,4.88
2022-08-26T05:20:49.983Z,5.15
2022-08-26T05:23:54.948Z,4.20
2022-08-26T05:26:58.191Z,5.03
2022-08-26T05:30:03.478Z,5.32
2022-08-26T05:33:09.863Z,4.63
2022-08-26T05:36:16.450Z,4.70
2022-08-26T05:39:20.104Z,3.80
2022-08-26T05:42:24.283Z,4.28
2022-08-26T05:45:28.265Z,4.85
2022-08-26T05:48:32.987Z,4.43
2022-08-26T05:51:36.599Z,5.05
2022-08-26T05:54:41.004Z,4.53
2022-08-26T05:57:44.394Z,5.38
2022-08-26T06:00:49.601Z,5.10
2022-08-26T06:03:57.020Z,4.72
2022-08-26T06:07:03.052Z,5.32
2022-08-26T06:10:31.610Z,4.65
2022-08-26T06:13:36.415Z,6.03
2022-08-26T06:16:43.971Z,4.32
2022-08-26T06:19:49.260Z,4.70
2022-08-26T06:23:10.230Z,4.95
2022-08-26T06:26:14.897Z,5.82
2022-08-26T06:29:24.051Z,4.57
2022-08-26T06:32:28.209Z,5.20
2022-08-26T06:35:38.031Z,4.07
2022-08-26T06:38:42.063Z,4.93
2022-08-26T06:41:46.266Z,5.10
2022-08-26T06:44:54.325Z,4.65
2022-08-26T06:47:57.757Z,5.30
2022-08-26T06:51:09.088Z,4.88
2022-08-26T06:54:12.641Z,5.05
2022-08-26T06:57:16.721Z,5.38
2022-08-26T07:00:20.876Z,5.72
2022-08-26T07:03:24.315Z,4.65
2022-08-26T07:06:29.828Z,4.68
2022-08-26T07:09:35.464Z,4.28
2022-08-26T07:12:40.599Z,4.28
2022-08-26T07:15:44.655Z,4.85
2022-08-26T07:18:48.713Z,4.28
2022-08-26T07:21:54.625Z,4.72
2022-08-26T07:24:59.008Z,4.78
2022-08-26T07:28:02.803Z,4.40
2022-08-26T07:31:09.812Z,4.93
2022-08-26T07:34:13.986Z,4.70
2022-08-26T07:37:18.911Z,5.07
2022-08-26T07:40:23.745Z,4.60
2022-08-26T07:43:27.516Z,4.63
2022-08-26T07:46:32.908Z,4.43
2022-08-26T07:49:37.229Z,4.60
2022-08-26T07:52:42.866Z,5.60
2022-08-26T07:55:46.864Z,4.85
2022-08-26T07:58:51.585Z,4.22
2022-08-26T08:01:57.581Z,4.90
2022-08-26T08:05:01.035Z,4.97
2022-08-26T08:08:26.621Z,5.18
2022-08-26T08:11:31.332Z,4.78
2022-08-26T08:14:37.293Z,4.78
2022-08-26T08:17:40.855Z,4.63
2022-08-26T08:20:47.718Z,4.70
2022-08-26T08:24:04.425Z,5.05
2022-08-26T08:27:07.907Z,4.65
2022-08-26T08:30:13.865Z,4.75
2022-08-26T08:33:17.470Z,4.82
2022-08-26T08:36:22.941Z,5.25
2022-08-26T08:39:27.792Z,4.93
2022-08-26T08:42:43.977Z,5.22
2022-08-26T08:45:50.812Z,4.90
2022-08-26T08:48:59.815Z,5.03
2022-08-26T08:52:11.479Z,5.05
2022-08-26T08:55:18.259Z,5.22
2022-08-26T08:58:28.275Z,4.95
2022-08-26T09:01:43.536Z,4.90
2022-08-26T09:04:59.909Z,5.35
2022-08-26T09:08:07.389Z,5.03
2022-08-26T09:11:18.635Z,5.28
2022-08-26T09:14:22.856Z,5.38
2022-08-26T09:17:35.600Z,4.93
2022-08-26T09:20:50.933Z,5.45
2022-08-26T09:23:56.649Z,4.40
2022-08-26T09:27:01.920Z,4.72
2022-08-26T09:30:06.313Z,5.60
2022-08-26T09:33:16.746Z,4.60
2022-08-26T09:36:26.380Z,4.57
2022-08-26T09:39:34.746Z,4.63
2022-08-26T09:42:42.435Z,5.22
2022-08-26T09:45:50.714Z,5.05
2022-08-26T09:48:56.311Z,4.55
2022-08-26T09:52:15.911Z,5.22
2022-08-26T09:55:23.997Z,4.68
2022-08-26T09:58:38.069Z,4.70
2022-08-26T10:01:43.548Z,4.38
2022-08-26T10:04:54.193Z,6.47
2022-08-26T10:07:59.655Z,7.22
2022-08-26T10:11:06.875Z,4.90
2022-08-26T10:14:17.073Z,4.95
2022-08-26T10:17:29.175Z,4.95
2022-08-26T10:20:39.359Z,4.68
2022-08-26T10:23:46.103Z,4.60
2022-08-26T10:27:01.060Z,4.47
2022-08-26T10:30:10.139Z,4.97
2022-08-26T10:33:17.981Z,5.00
2022-08-26T10:37:05.090Z,5.18
2022-08-26T10:40:12.777Z,4.80
2022-08-26T10:43:22.667Z,5.25
2022-08-26T10:46:41.031Z,5.07
2022-08-26T10:49:46.991Z,4.35
2022-08-26T10:53:02.283Z,5.50
2022-08-26T10:56:15.720Z,4.43
2022-08-26T10:59:29.838Z,4.70
2022-08-26T11:02:40.729Z,4.88
2022-08-26T11:06:17.376Z,4.85
2022-08-26T11:09:53.187Z,5.38
2022-08-26T11:13:00.934Z,4.88
2022-08-26T11:16:04.568Z,5.13
2022-08-26T11:19:11.842Z,5.30
2022-08-26T11:22:27.200Z,4.93
2022-08-26T11:25:31.077Z,5.20
2022-08-26T11:28:36.518Z,5.15
2022-08-26T11:32:10.443Z,5.03
2022-08-26T11:35:48.653Z,5.93
2022-08-26T11:38:53.574Z,5.57
2022-08-26T11:42:00.556Z,5.22
2022-08-26T11:45:15.507Z,5.50
2022-08-26T11:48:20.959Z,6.38
2022-08-26T11:51:26.109Z,5.32
2022-08-26T11:54:35.659Z,5.35
2022-08-26T11:57:46.601Z,5.20
2022-08-26T12:00:55.858Z,5.30
2022-08-26T12:04:01.078Z,5.00
2022-08-26T12:07:08.645Z,4.47
2022-08-26T12:10:29.945Z,4.53
2022-08-26T12:13:34.071Z,4.50
2022-08-26T12:16:40.262Z,4.88
2022-08-26T12:19:44.055Z,4.82
2022-08-26T12:22:48.624Z,5.55
2022-08-26T12:26:03.170Z,5.30
2022-08-26T12:29:19.941Z,4.85
2022-08-26T12:32:25.707Z,5.43
2022-08-26T12:35:29.643Z,4.97
2022-08-26T12:38:36.883Z,5.25
2022-08-26T12:41:49.099Z,4.68
2022-08-26T12:45:00.767Z,5.22
2022-08-26T12:48:08.533Z,5.35
2022-08-26T12:51:24.809Z,5.28
2022-08-26T12:54:48.601Z,5.07
2022-08-26T12:58:11.702Z,5.57
2022-08-26T13:01:23.697Z,5.43
2022-08-26T13:04:34.684Z,5.50
2022-08-26T13:07:38.278Z,5.55
2022-08-26T13:10:44.465Z,6.05
2022-08-26T13:13:51.852Z,5.32
2022-08-26T13:16:56.739Z,5.43
2022-08-26T13:20:04.216Z,4.75
2022-08-26T13:23:09.209Z,5.50
2022-08-26T13:26:12.680Z,5.50
2022-08-26T13:29:18.026Z,5.35
2022-08-26T13:32:26.830Z,4.97
2022-08-26T13:35:30.984Z,5.10
2022-08-26T13:38:34.792Z,5.55
2022-08-26T13:41:39.569Z,5.10
2022-08-26T13:44:45.174Z,4.93
2022-08-26T13:47:48.958Z,5.65
2022-08-26T13:50:53.797Z,5.15
2022-08-26T13:53:58.115Z,5.65
2022-08-26T13:57:01.459Z,5.18
2022-08-26T14:00:10.931Z,5.00
2022-08-26T14:03:14.658Z,4.95
2022-08-26T14:06:18.193Z,5.45
2022-08-26T14:09:21.596Z,4.75
2022-08-26T14:12:24.996Z,5.18
2022-08-26T14:15:29.872Z,5.50
2022-08-26T14:18:41.096Z,5.07
2022-08-26T14:21:45.375Z,5.40
2022-08-26T14:24:49.478Z,5.03
2022-08-26T14:27:54.064Z,4.95
2022-08-26T14:30:59.650Z,5.30
2022-08-26T14:34:05.496Z,5.20
2022-08-26T14:37:10.641Z,5.40
2022-08-26T14:40:18.794Z,5.50
2022-08-26T14:43:22.212Z,5.82
2022-08-26T14:46:29.023Z,4.93
2022-08-26T14:49:33.934Z,4.70
2022-08-26T14:52:57.334Z,5.30
2022-08-26T14:56:00.726Z,5.07
2022-08-26T14:59:04.211Z,5.47
2022-08-26T15:02:13.664Z,5.40
2022-08-26T15:05:25.815Z,5.60
2022-08-26T15:08:29.117Z,5.32
2022-08-26T15:11:32.679Z,5.68
2022-08-26T15:14:36.430Z,4.80
2022-08-26T15:17:43.366Z,5.75
2022-08-26T15:20:48.452Z,6.05
2022-08-26T15:23:53.238Z,5.10
2022-08-26T15:26:56.752Z,5.35
2022-08-26T15:30:00.209Z,5.53
2022-08-26T15:33:05.011Z,5.55
2022-08-26T15:36:10.158Z,5.00
2022-08-26T15:39:13.496Z,5.30
2022-08-26T15:42:16.845Z,5.28
2022-08-26T15:45:24.841Z,5.15
2022-08-26T15:48:31.063Z,5.03
2022-08-26T15:51:45.631Z,5.40
2022-08-26T15:54:49.240Z,5.65
2022-08-26T15:57:53.775Z,6.20
2022-08-26T16:00:58.413Z,5.78
2022-08-26T16:04:03.401Z,4.90
2022-08-26T16:07:07.195Z,5.68
2022-08-26T16:10:11.356Z,5.78
2022-08-26T16:13:15.095Z,6.97
2022-08-26T16:16:18.954Z,6.25
2022-08-26T16:19:23.829Z,5.55
2022-08-26T16:22:27.231Z,5.63
2022-08-26T16:25:34.087Z,5.88
2022-08-26T16:28:37.489Z,5.47
2022-08-26T16:31:42.162Z,5.88
2022-08-26T16:34:56.569Z,4.85
2022-08-26T16:38:00.347Z,6.53
2022-08-26T16:41:03.752Z,4.82
2022-08-26T16:44:08.332Z,4.90
2022-08-26T16:47:13.183Z,6.32
2022-08-26T16:50:19.522Z,5.68
2022-08-26T16:53:23.028Z,5.07
2022-08-26T16:56:34.091Z,5.30
2022-08-26T16:59:37.863Z,6.00
2022-08-26T17:02:41.632Z,5.60
2022-08-26T17:05:46.405Z,6.30
2022-08-26T17:08:49.830Z,6.60
2022-08-26T17:11:53.433Z,6.22
2022-08-26T17:14:56.977Z,6.80
2022-08-26T17:18:00.386Z,5.45
2022-08-26T17:21:08.262Z,5.97
2022-08-26T17:24:11.696Z,5.90
2022-08-26T17:27:15.140Z,5.68
2022-08-26T17:30:18.850Z,5.60
2022-08-26T17:33:24.636Z,5.43
2022-08-26T17:36:30.307Z,5.88
2022-08-26T17:39:33.666Z,5.22
2022-08-26T17:42:38.361Z,5.88
2022-08-26T17:45:42.220Z,6.40
2022-08-26T17:48:47.282Z,7.05
2022-08-26T17:51:52.053Z,6.82
2022-08-26T17:54:56.460Z,6.38
2022-08-26T17:58:00.165Z,6.55
2022-08-26T18:01:07.849Z,6.88
2022-08-26T18:04:11.998Z,6.18
2022-08-26T18:07:17.523Z,6.75
2022-08-26T18:10:22.363Z,6.65
2022-08-26T18:13:25.824Z,6.72
2022-08-26T18:16:29.465Z,7.10
2022-08-26T18:19:32.933Z,7.72
2022-08-26T18:22:37.788Z,6.10
2022-08-26T18:25:42.364Z,6.30
2022-08-26T18:28:45.615Z,5.60
2022-08-26T18:31:49.714Z,5.85
2022-08-26T18:34:53.284Z,5.88
2022-08-26T18:38:00.857Z,6.88
2022-08-26T18:41:09.851Z,6.10
2022-08-26T18:44:14.449Z,5.75
2022-08-26T18:47:17.882Z,5.70
2022-08-26T18:50:21.437Z,6.25
2022-08-26T18:53:26.644Z,5.72
2022-08-26T18:56:31.555Z,6.25
2022-08-26T18:59:34.942Z,5.28
2022-08-26T19:02:38.459Z,6.25
2022-08-26T19:05:41.947Z,5.68
2022-08-26T19:08:49.851Z,5.57
2022-08-26T19:11:53.866Z,5.60
2022-08-26T19:14:57.289Z,6.05
2022-08-26T19:18:00.813Z,6.10
2022-08-26T19:21:04.819Z,6.47
2022-08-26T19:24:15.545Z,5.93
2022-08-26T19:27:19.090Z,5.55
2022-08-26T19:30:22.403Z,6.10
2022-08-26T19:33:25.834Z,5.97
2022-08-26T19:36:30.459Z,5.35
2022-08-26T19:39:36.194Z,6.35
2022-08-26T19:42:39.458Z,5.25
2022-08-26T19:45:42.807Z,5.97
2022-08-26T19:48:46.540Z,6.40
2022-08-26T19:51:50.020Z,6.28
2022-08-26T19:54:54.710Z,6.07
2022-08-26T19:57:58.107Z,5.40
2022-08-26T20:01:01.508Z,7.03
2022-08-26T20:04:05.387Z,4.70
2022-08-26T20:07:14.142Z,5.47
2022-08-26T20:10:24.561Z,5.60
2022-08-26T20:13:28.351Z,5.53
2022-08-26T20:16:32.922Z,5.40
2022-08-26T20:19:53.706Z,6.40
2022-08-26T20:22:58.932Z,7.47
2022-08-26T20:26:04.117Z,6.70
2022-08-26T20:29:09.011Z,7.00
2022-08-26T20:32:13.138Z,6.57
2022-08-26T20:35:16.758Z,5.88
2022-08-26T20:38:21.528Z,6.70
2022-08-26T20:41:27.640Z,7.00
2022-08-26T20:44:31.047Z,6.38
2022-08-26T20:47:34.771Z,5.75
2022-08-26T20:50:39.140Z,5.68
2022-08-26T20:53:42.736Z,6.00
2022-08-26T20:56:48.364Z,5.93
2022-08-26T20:59:51.694Z,5.80
2022-08-26T21:02:55.115Z,5.78
2022-08-26T21:05:58.373Z,5.70
2022-08-26T21:09:02.228Z,5.45
2022-08-26T21:12:07.262Z,5.70
2022-08-26T21:15:11.885Z,5.97
2022-08-26T21:18:15.387Z,5.72
2022-08-26T21:21:18.675Z,5.53
2022-08-26T21:24:28.704Z,5.35
2022-08-26T21:27:35.170Z,5.93
2022-08-26T21:30:39.189Z,5.65
2022-08-26T21:33:43.089Z,6.53
2022-08-26T21:36:47.130Z,5.90
2022-08-26T21:39:54.197Z,6.35
2022-08-26T21:42:58.999Z,6.10
2022-08-26T21:46:04.229Z,5.65
2022-08-26T21:49:09.982Z,5.03
2022-08-26T21:52:13.779Z,6.13
2022-08-26T21:55:17.149Z,6.15
2022-08-26T21:58:21.986Z,6.90
2022-08-26T22:01:27.679Z,6.75
2022-08-26T22:04:30.940Z,7.22
2022-08-26T22:07:34.337Z,5.90
2022-08-26T22:10:40.017Z,6.22
2022-08-26T22:13:45.653Z,6.10
2022-08-26T22:16:50.292Z,6.82
2022-08-26T22:19:55.230Z,6.03
2022-08-26T22:23:01.203Z,6.63
2022-08-26T22:26:05.130Z,6.40
2022-08-26T22:29:09.868Z,6.20
2022-08-26T22:32:13.685Z,5.93
2022-08-26T22:35:29.036Z,6.15
2022-08-26T22:38:33.261Z,6.63
2022-08-26T22:41:36.635Z,6.25
2022-08-26T22:44:41.333Z,6.15
2022-08-26T22:47:44.718Z,6.85
2022-08-26T22:50:49.968Z,6.53
2022-08-26T22:53:53.344Z,6.10
2022-08-26T22:56:56.827Z,6.72
2022-08-26T23:00:01.566Z,6.38
2022-08-26T23:03:05.865Z,6.30
2022-08-26T23:06:10.243Z,7.10
2022-08-26T23:09:14.026Z,6.35
2022-08-26T23:12:17.354Z,6.63
2022-08-26T23:15:22.874Z,6.95
2022-08-26T23:18:26.162Z,6.47
2022-08-26T23:21:29.607Z,6.38
2022-08-26T23:24:33.456Z,6.95
2022-08-26T23:27:37.997Z,5.78
2022-08-26T23:30:42.724Z,6.32
2022-08-26T23:34:03.868Z,6.15
2022-08-26T23:37:07.819Z,6.72
2022-08-26T23:40:13.932Z,6.32
2022-08-26T23:43:17.754Z,6.60
2022-08-26T23:46:22.440Z,6.13
2022-08-26T23:49:26.749Z,6.22
2022-08-26T23:52:47.733Z,6.40
2022-08-26T23:55:53.462Z,6.10
2022-08-26T23:58:57.347Z,5.93
